Weather reports worldwide

Advertisment
Kleiner Feldberg/Taunus, Germany (10635): temperature & dewpoint: 07.07.2020 07:00:00 - 13.07.2020 07:00:00 (CEST)Kleiner Feldberg/Taunus, Germany (10635): temperature 5cm & temperature -5cm: 07.07.2020 07:00:00 - 13.07.2020 07:00:00 (CEST)Kleiner Feldberg/Taunus, Germany (10635): temperature -20cm & temperature -100cm: 07.07.2020 07:00:00 - 13.07.2020 07:00:00 (CEST)Kleiner Feldberg/Taunus, Germany (10635): wind speed & gusts: 07.07.2020 07:00:00 - 13.07.2020 07:00:00 (CEST)Kleiner Feldberg/Taunus, Germany (10635): wind direction: 07.07.2020 07:00:00 - 13.07.2020 07:00:00 (CEST)Kleiner Feldberg/Taunus, Germany (10635): visibility: 07.07.2020 07:00:00 - 13.07.2020 07:00:00 (CEST)Kleiner Feldberg/Taunus, Germany (10635): sunshine duration: 07.07.2020 07:00:00 - 13.07.2020 07:00:00 (CEST)Kleiner Feldberg/Taunus, Germany (10635): precipitation: 07.07.2020 07:00:00 - 13.07.2020 07:00:00 (CEST)
Date & Time tt [°C] td [°C] tt 5cm [°C] tt -5cm [°C] tt -20cm [°C] tt -100cm [°C] ff [km/h] ff [kn] fx [km/h] fx [kn] dd vv [km] sd [min] rr [mm]
13.07.2020 07:00:00 - - - - - - - - - - - - - -
13.07.2020 06:00:00 11,9 5,1 9,8 9,9 14,4 14,3 16 9 26 14 E 66 0 0,0
13.07.2020 05:00:00 11,3 4,8 9,2 9,9 14,7 14,3 16 9 24 13 E 64 0 0,0
13.07.2020 04:00:00 11,7 4,5 9,6 10,3 15,1 14,3 16 9 30 16 E 71 0 0,0
13.07.2020 03:00:00 11,8 4,6 9,9 10,7 15,5 14,3 17 9 29 16 E 75 0 0,0
13.07.2020 02:00:00 12,1 4,9 10,2 11,2 15,9 14,3 18 10 31 17 E 67 0 0,0
13.07.2020 01:00:00 12,4 5,0 10,4 11,8 16,4 14,2 18 10 31 17 ENE 74 0 0,0
13.07.2020 00:00:00 12,7 4,5 10,9 12,5 16,9 14,2 18 10 31 17 ENE 67 0 0,0
12.07.2020 23:00:00 13,1 5,0 11,5 13,3 17,5 14,2 21 11 32 18 NE 69 0 0,0
12.07.2020 22:00:00 13,3 5,1 11,4 14,4 18,1 14,2 19 11 27 15 NE 65 12 0,0
12.07.2020 21:00:00 14,0 4,8 12,3 16,1 18,6 14,2 16 8 26 14 NE 60 42 0,0
12.07.2020 20:00:00 15,2 4,3 14,0 18,3 19,0 14,2 13 7 24 13 NE 59 40 0,0
12.07.2020 19:00:00 16,7 3,9 18,1 20,6 19,1 14,2 7 4 25 14 N 59 17 0,0
12.07.2020 18:00:00 16,0 3,5 16,8 23,4 19,0 14,2 6 3 19 10 ENE 67 22 0,0
12.07.2020 17:00:00 16,3 3,8 18,8 23,7 18,7 14,2 7 4 21 12 NE 72 13 0,0
12.07.2020 16:00:00 15,7 3,8 17,7 24,8 18,3 14,2 6 4 29 16 NNE 75 13 0,0
12.07.2020 15:00:00 15,6 4,7 17,9 25,6 17,8 14,2 14 8 22 12 NNE 55 20 0,0
12.07.2020 14:00:00 16,4 6,3 20,8 25,1 17,3 14,3 9 5 20 11 ENE 61 11 0,0
12.07.2020 13:00:00 16,2 6,4 20,6 28,6 16,5 14,3 6 3 15 8 ENE 52 30 0,0
12.07.2020 12:00:00 13,8 6,0 16,5 25,7 15,8 14,3 4 2 16 9 NW 54 35 0,0
12.07.2020 11:00:00 12,2 7,5 13,4 19,8 15,3 14,3 4 2 10 6 W 57 9 0,0
12.07.2020 10:00:00 15,3 6,9 21,8 27,1 14,3 14,3 5 3 16 9 SE 49 57 0,0
12.07.2020 09:00:00 13,4 5,6 17,2 21,4 13,7 14,3 9 5 16 9 E 52 60 0,0
12.07.2020 08:00:00 12,2 5,5 14,2 16,4 13,5 14,3 8 4 16 9 ENE 71 60 0,0
12.07.2020 07:00:00 10,9 5,2 10,4 9,3 13,7 14,3 9 5 18 10 ENE 59 55 0,0
12.07.2020 06:00:00 9,9 4,9 8,0 8,5 14,0 14,3 11 6 18 10 NE 65 0 0,0
12.07.2020 05:00:00 9,6 4,9 7,1 8,7 14,4 14,2 10 5 17 9 ENE 65 0 0,0
12.07.2020 04:00:00 9,8 5,2 6,9 9,0 14,9 14,2 7 4 9 5 NE 57 0 0,0
12.07.2020 03:00:00 10,3 5,1 7,4 9,5 15,3 14,2 6 3 11 6 NNE 62 0 0,0
12.07.2020 02:00:00 10,8 4,8 8,4 10,2 15,8 14,2 9 5 14 8 NE 60 0 0,0
12.07.2020 01:00:00 10,7 4,8 8,8 11,2 16,3 14,1 11 6 17 9 NNE 56 0 0,0
12.07.2020 00:00:00 10,9 4,7 8,5 11,4 16,9 14,1 13 7 19 10 NNE 67 0 0,0
11.07.2020 23:00:00 10,5 4,3 8,5 12,4 17,6 14,1 13 7 19 11 NNE 63 0 0,0
11.07.2020 22:00:00 10,7 4,8 8,0 14,1 18,3 14,1 9 5 15 8 N 66 14 0,0
11.07.2020 21:00:00 12,5 4,7 11,2 16,5 18,9 14,1 9 5 21 11 N 67 57 0,0
11.07.2020 20:00:00 14,2 4,3 14,3 19,7 19,2 14,1 13 7 21 11 NNE 67 34 0,0
11.07.2020 19:00:00 13,7 4,7 14,7 21,7 19,3 14,1 10 5 22 12 N 75 21 0,0
11.07.2020 18:00:00 14,9 4,0 17,1 24,1 19,1 14,1 10 5 23 12 NW 46 52 0,0
11.07.2020 17:00:00 15,0 5,1 18,3 24,9 18,8 14,1 9 5 22 12 NW 68 18 0,0
11.07.2020 16:00:00 14,0 4,9 16,6 25,4 18,3 14,1 8 4 24 13 NNW 75 12 0,0
11.07.2020 15:00:00 15,4 3,9 20,2 29,4 17,4 14,2 10 5 26 14 WNW 75 49 0,0
11.07.2020 14:00:00 15,5 5,9 21,7 24,8 16,6 14,2 6 3 26 14 NW 45 30 0,0
11.07.2020 13:00:00 12,7 5,5 15,5 23,7 15,7 14,2 8 4 20 11 NW 75 29 0,2
11.07.2020 12:00:00 13,2 6,1 19,8 23,3 14,9 14,2 9 5 20 11 NW 72 24 0,0
11.07.2020 11:00:00 12,7 6,7 19,0 24,6 14,1 14,2 6 4 17 9 NW 56 35 0,0
11.07.2020 10:00:00 10,4 6,1 12,3 18,4 13,5 14,3 7 4 19 10 NNW 56 27 0,0
11.07.2020 09:00:00 9,5 6,6 10,8 16,0 13,1 14,3 9 5 18 10 NNE 46 41 0,0
11.07.2020 08:00:00 9,6 7,3 11,4 15,2 13,0 14,3 10 5 19 11 NNE 50 60 0,0
11.07.2020 07:00:00 8,2 7,2 7,7 8,4 13,2 14,3 13 7 21 12 NNE 31 56 0,0
11.07.2020 06:00:00 7,8 7,4 6,8 7,8 13,6 14,3 13 7 22 12 NNE 24 0 0,0
11.07.2020 05:00:00 7,8 7,2 6,6 8,2 14,0 14,3 14 8 22 12 NNE 35 0 0,0
11.07.2020 04:00:00 7,9 7,3 6,8 9,0 14,3 14,3 13 7 23 12 NNE 30 0 0,0
11.07.2020 03:00:00 8,5 7,8 7,8 10,0 14,7 14,3 13 7 21 11 NNE 38 0 0,0
11.07.2020 02:00:00 9,1 7,3 8,7 10,9 15,0 14,3 12 6 24 13 N 72 0 0,0
11.07.2020 01:00:00 9,8 8,6 9,6 11,6 15,3 14,3 13 7 28 15 N 52 0 0,0
11.07.2020 00:00:00 10,2 8,5 9,9 12,2 15,7 14,3 15 8 28 15 N 58 0 0,0
10.07.2020 23:00:00 10,9 8,9 10,7 12,8 16,0 14,3 12 7 27 15 N 60 0 0,0
10.07.2020 22:00:00 11,5 8,7 11,3 13,6 16,3 14,2 14 7 33 18 N 50 1 0,0
10.07.2020 21:00:00 12,5 8,8 12,5 15,0 16,6 14,2 13 7 34 18 NNW 54 14 0,0
10.07.2020 20:00:00 13,0 10,6 13,3 16,1 16,8 14,2 9 5 24 13 NW 54 0 0,0
10.07.2020 19:00:00 13,3 10,6 14,0 17,3 16,9 14,2 11 6 29 16 NW 61 0 0,0
10.07.2020 18:00:00 13,5 11,5 14,3 17,5 17,0 14,2 9 5 32 17 NW 55 0 0,0
10.07.2020 17:00:00 13,8 10,3 14,5 18,3 17,0 14,2 12 7 37 20 NW 59 0 0,0
10.07.2020 16:00:00 15,2 9,7 16,2 19,2 17,0 14,2 15 8 36 19 WNW 75 0 0,0
10.07.2020 15:00:00 17,0 11,2 19,2 20,9 16,8 14,2 12 7 35 19 WNW 71 1 0,0
10.07.2020 14:00:00 16,2 11,2 17,9 21,5 16,4 14,2 14 8 39 21 WNW 75 4 0,0
10.07.2020 13:00:00 16,0 11,1 17,4 20,3 16,0 14,2 13 7 42 23 W 54 4 0,0
10.07.2020 12:00:00 15,9 11,4 16,9 18,3 15,9 14,2 19 10 44 24 W 55 0 0,0
10.07.2020 11:00:00 16,1 11,5 16,6 17,8 15,7 14,2 17 9 46 25 W 71 0 0,0
10.07.2020 10:00:00 15,5 12,5 16,1 17,6 15,5 14,2 14 8 36 19 W 38 0 0,0
10.07.2020 09:00:00 15,4 13,0 16,4 16,9 15,3 14,2 15 8 38 21 WNW 31 0 0,0
10.07.2020 08:00:00 16,8 11,8 16,8 16,0 15,3 14,2 14 8 36 19 W 40 2 0,0
10.07.2020 07:00:00 16,9 11,3 16,7 14,4 15,4 14,2 14 8 36 20 WSW 44 8 0,0
10.07.2020 06:00:00 17,2 11,1 15,8 13,9 15,5 14,2 20 11 40 22 SW 58 0 0,0
10.07.2020 05:00:00 17,9 10,9 16,5 14,1 15,7 14,2 19 10 33 18 SW 55 0 0,0
10.07.2020 04:00:00 17,9 11,2 16,2 14,0 15,9 14,1 16 9 29 16 SSW 69 0 0,0
10.07.2020 03:00:00 16,7 11,4 14,0 13,7 16,1 14,1 15 8 26 14 S 57 0 0,0
10.07.2020 02:00:00 17,2 11,7 15,5 14,8 16,3 14,1 11 6 22 12 S 52 0 0,0
10.07.2020 01:00:00 18,0 10,8 15,9 14,8 16,6 14,1 11 6 21 11 SW 52 0 0,0
10.07.2020 00:00:00 18,9 10,7 17,7 15,0 16,9 14,1 8 4 21 12 W 56 0 0,0
09.07.2020 23:00:00 17,8 11,0 15,5 14,6 17,3 14,0 10 5 26 14 WNW 59 0 0,0
09.07.2020 22:00:00 18,9 10,3 16,9 15,1 17,8 14,0 13 7 30 16 W 64 0 0,0
09.07.2020 21:00:00 19,4 10,6 17,8 16,6 18,2 14,0 11 6 30 16 W 66 19 0,0
09.07.2020 20:00:00 20,4 11,0 18,9 18,0 18,5 14,0 11 6 33 18 W 53 27 0,0
09.07.2020 19:00:00 21,3 10,7 20,9 19,8 18,7 14,0 14 8 43 23 W 59 30 0,0
09.07.2020 18:00:00 22,6 10,4 22,7 21,6 18,5 14,1 14 8 38 21 W 59 54 0,0
09.07.2020 17:00:00 22,5 10,7 23,4 22,8 18,1 14,1 16 9 39 21 W 65 49 0,0
09.07.2020 16:00:00 21,7 10,7 22,5 24,0 17,5 14,1 16 9 39 21 W 75 57 0,0
09.07.2020 15:00:00 21,1 12,4 23,3 24,7 16,7 14,1 15 8 36 19 WSW 60 47 0,0
09.07.2020 14:00:00 19,3 13,0 19,2 24,5 16,0 14,1 15 8 35 19 WSW 75 20 0,0
09.07.2020 13:00:00 17,3 15,1 19,4 24,6 15,1 14,2 17 9 31 17 SW 41 26 0,0
09.07.2020 12:00:00 16,4 16,1 19,8 21,2 14,5 14,2 12 7 27 15 SW 18 10 0,0
09.07.2020 11:00:00 14,9 14,9 16,0 17,5 14,2 14,2 10 6 23 13 W 0,5 0 0,0
09.07.2020 10:00:00 13,6 13,6 14,3 15,5 14,0 14,2 9 5 30 16 W 0,1 0 0,0
09.07.2020 09:00:00 13,4 13,4 13,7 14,6 13,9 14,3 10 6 33 18 W 0,1 0 0,0
09.07.2020 08:00:00 13,0 13,0 13,0 13,5 13,9 14,3 12 7 32 18 W 0,2 0 0,0
09.07.2020 07:00:00 12,9 12,9 12,9 13,3 13,9 14,3 11 6 27 15 W 0,1 0 0,0
09.07.2020 06:00:00 12,9 12,9 12,8 13,2 13,9 14,3 11 6 29 16 W 0,1 0 0,0
09.07.2020 05:00:00 12,9 12,9 12,8 13,1 14,0 14,3 10 6 23 13 W 0,1 0 0,0
09.07.2020 04:00:00 12,7 12,7 12,7 13,1 14,0 14,4 11 6 24 13 WSW 0,1 0 0,0
09.07.2020 03:00:00 12,6 12,6 12,5 13,0 14,0 14,4 9 5 25 14 WSW 0,1 0 0,1
09.07.2020 02:00:00 12,4 12,4 12,4 13,0 14,1 14,4 9 5 22 12 WSW 0,1 0 0,0
09.07.2020 01:00:00 12,2 12,2 12,2 12,9 14,1 14,4 10 5 21 11 SW 0,1 0 0,0
09.07.2020 00:00:00 12,0 12,0 12,0 12,9 14,2 14,5 11 6 19 10 SW 0,1 0 0,0
08.07.2020 23:00:00 11,8 11,8 11,9 12,8 14,3 14,5 5 3 15 8 WSW 0,2 0 0,0
08.07.2020 22:00:00 11,7 11,7 11,8 12,9 14,4 14,5 6 3 18 10 W 0,1 0 0,2
08.07.2020 21:00:00 11,6 11,6 11,7 13,1 14,4 14,5 6 4 16 9 W 0,1 0 0,0
08.07.2020 20:00:00 11,5 11,5 11,6 13,2 14,5 14,5 6 3 16 9 W 0,1 0 0,1
08.07.2020 19:00:00 11,3 11,3 11,5 13,5 14,6 14,6 9 5 25 13 WNW 0,2 0 0,0
08.07.2020 18:00:00 11,0 11,0 11,3 13,4 14,6 14,6 10 5 29 15 WNW 0,1 0 0,1
08.07.2020 17:00:00 10,7 10,7 11,2 13,8 14,6 14,6 14 8 29 16 WNW 0,1 0 0,4
08.07.2020 16:00:00 10,4 10,4 11,1 14,0 14,6 14,6 11 6 25 13 W 0,1 0 0,5
08.07.2020 15:00:00 9,6 9,5 10,3 13,4 14,7 14,6 10 6 29 16 W 0,1 0 0,4
08.07.2020 14:00:00 9,1 9,1 9,7 12,7 14,8 14,6 11 6 33 18 W 0,1 0 1,4
08.07.2020 13:00:00 9,1 9,1 9,6 12,9 14,9 14,6 12 7 30 16 W 0,1 0 3,2
08.07.2020 12:00:00 9,7 9,7 10,4 13,7 14,9 14,6 11 6 26 14 SW 0,1 0 1,0
08.07.2020 11:00:00 9,2 8,9 9,7 13,7 15,0 14,6 8 4 23 13 WSW 0,7 0 0,8
08.07.2020 10:00:00 9,0 8,0 9,7 12,9 15,1 14,6 5 3 15 8 NW 4,8 0 0,0
08.07.2020 09:00:00 9,5 8,4 10,3 13,1 15,2 14,6 6 3 18 10 WNW 27 0 0,0
08.07.2020 08:00:00 9,9 8,6 9,9 12,7 15,4 14,6 7 4 23 12 WNW 29 0 0,0
08.07.2020 07:00:00 10,1 7,4 9,1 12,2 15,6 14,6 10 5 23 12 WNW 17 0 0,0
08.07.2020 06:00:00 10,0 7,3 8,9 12,4 15,8 14,6 10 6 32 18 WNW 40 0 0,1
08.07.2020 05:00:00 12,0 5,8 11,8 13,3 16,1 14,6 14 7 32 18 W 57 0 0,0
08.07.2020 04:00:00 12,4 5,6 12,1 13,4 16,3 14,5 12 6 28 15 W 59 0 0,0
08.07.2020 03:00:00 12,4 6,3 12,0 13,7 16,6 14,5 8 4 21 11 WSW 69 0 0,0
08.07.2020 02:00:00 12,5 6,2 12,0 13,9 16,9 14,5 8 4 16 9 WSW 61 0 0,0
08.07.2020 01:00:00 12,2 6,4 11,2 14,2 17,3 14,5 5 3 10 5 W 56 0 0,0
08.07.2020 00:00:00 11,9 6,4 10,9 14,5 17,8 14,5 6 3 11 6 NW 59 0 0,0
07.07.2020 23:00:00 12,3 6,0 11,5 15,4 18,2 14,4 5 3 12 7 NW 53 0 0,0
07.07.2020 22:00:00 12,5 5,8 11,6 16,5 18,7 14,4 5 3 14 8 NW 58 0 0,0
07.07.2020 21:00:00 13,5 5,3 12,6 18,1 19,1 14,4 6 3 16 8 WNW 63 17 0,0
07.07.2020 20:00:00 14,3 5,5 14,5 20,3 19,4 14,4 4 2 14 7 WNW 59 12 0,0
07.07.2020 19:00:00 15,7 4,4 17,2 22,4 19,6 14,5 6 4 18 10 W 71 11 0,0
07.07.2020 18:00:00 14,8 4,4 16,5 23,9 19,6 14,5 6 3 17 9 W 56 10 0,0
07.07.2020 17:00:00 15,9 4,5 18,1 25,5 19,4 14,5 6 3 18 10 W 75 4 0,0
07.07.2020 16:00:00 15,3 4,1 18,7 27,4 18,9 14,5 8 5 22 12 W 47 17 0,0
07.07.2020 15:00:00 15,0 4,6 18,6 29,1 18,2 14,6 9 5 22 12 WSW 61 39 0,0
07.07.2020 14:00:00 13,9 3,7 18,9 27,3 17,5 14,6 9 5 23 12 WNW 71 14 0,0
07.07.2020 13:00:00 13,6 4,2 16,9 27,2 16,6 14,6 7 4 22 12 W 72 36 0,0
07.07.2020 12:00:00 13,3 5,3 18,5 27,6 15,5 14,6 7 4 18 10 NW 61 52 0,0
07.07.2020 11:00:00 11,4 3,7 16,8 26,5 14,6 14,7 8 4 16 8 WNW 59 60 0,0
07.07.2020 10:00:00 10,6 4,3 16,8 24,6 13,8 14,7 6 4 13 7 W 40 56 0,0
07.07.2020 09:00:00 8,1 5,3 8,5 14,9 13,4 14,7 5 3 10 5 W 49 39 0,0
07.07.2020 08:00:00 8,9 5,7 11,7 16,8 13,2 14,7 4 2 18 10 NNW 42 46 0,0
07.07.2020 07:00:00 7,2 7,2 7,6 9,6 13,3 14,7 8 4 20 11 NNW 0,1 0 0,0

tt = temperature
td = dewpoint
tt 5cm = temperature 5cm
tt -5cm = temperature -5cm
tt -20cm = temperature -20cm
tt -100cm = temperature -100cm
ff = wind speed
fx = gusts
dd = wind direction
vv = visibility
sd = sunshine duration
rr = precipitation

Next stations